Time;durP1;ratioP1;P1;durP2;ratioP2;P2;SDS_P1;SDS_P2;PMS_P1;PMS_P2;Temp;Humidity;BMP_temperature;BMP_pressure;BME280_temperature;BME280_humidity;BME280_pressure;Samples;Min_cycle;Max_cycle;Signal;HPM_P1;HPM_P2
2022/05/18 00:01:01;;;;;;;4.90;2.03;;;15.00;99.90;;;;;;5051943;28;20257;-74
2022/05/18 00:03:31;;;;;;;4.40;1.70;;;14.90;99.90;;;;;;5050453;28;20278;-74
2022/05/18 00:06:01;;;;;;;4.33;2.17;;;14.80;99.90;;;;;;5050528;28;20706;-74
2022/05/18 00:08:28;;;;;;;5.93;2.33;;;14.80;99.90;;;;;;5051219;28;20221;-74
2022/05/18 00:10:55;;;;;;;5.83;1.80;;;14.70;99.90;;;;;;5051521;28;20326;-73
2022/05/18 00:13:24;;;;;;;3.47;2.00;;;14.70;99.90;;;;;;5051717;28;20278;-73
2022/05/18 00:15:51;;;;;;;4.17;2.03;;;14.70;99.90;;;;;;5051432;28;20253;-74
2022/05/18 00:18:17;;;;;;;4.30;2.10;;;14.70;99.90;;;;;;5051804;28;20248;-73
2022/05/18 00:20:44;;;;;;;6.10;2.17;;;14.60;99.90;;;;;;5050747;28;20286;-74
2022/05/18 00:23:11;;;;;;;6.53;2.30;;;14.50;99.90;;;;;;5051471;28;20235;-73
2022/05/18 00:25:41;;;;;;;3.00;2.30;;;14.50;99.90;;;;;;5051245;28;20238;-74
2022/05/18 00:28:08;;;;;;;6.63;2.30;;;14.40;99.90;;;;;;5051628;28;20286;-73
2022/05/18 00:30:38;;;;;;;6.03;2.40;;;14.40;99.90;;;;;;5052058;28;20294;-73
2022/05/18 00:33:06;;;;;;;4.73;2.07;;;14.30;99.90;;;;;;5055552;28;20245;-73
2022/05/18 00:35:35;;;;;;;5.83;2.37;;;14.30;99.90;;;;;;5055489;28;20294;-75
2022/05/18 00:38:02;;;;;;;4.47;2.30;;;14.20;99.90;;;;;;5054823;28;20642;-74
2022/05/18 00:40:30;;;;;;;4.07;2.13;;;14.20;99.90;;;;;;5055444;28;20291;-74
2022/05/18 00:42:57;;;;;;;6.23;2.60;;;14.20;99.90;;;;;;5055134;28;20234;-75
2022/05/18 00:45:25;;;;;;;4.97;2.60;;;14.10;99.90;;;;;;5055239;28;20235;-74
2022/05/18 00:47:54;;;;;;;6.23;2.70;;;14.00;99.90;;;;;;5053478;28;20341;-75
2022/05/18 00:50:24;;;;;;;6.60;2.40;;;14.00;99.90;;;;;;5055294;28;20227;-74
2022/05/18 00:52:58;;;;;;;4.50;2.30;;;14.00;99.90;;;;;;5054532;28;20259;-75
2022/05/18 00:55:27;;;;;;;4.63;2.40;;;14.00;99.90;;;;;;5055367;28;20235;-75
2022/05/18 00:58:01;;;;;;;5.57;2.40;;;13.90;99.90;;;;;;5053417;28;20286;-74
2022/05/18 01:00:29;;;;;;;4.73;2.23;;;13.90;99.90;;;;;;5055290;28;20234;-74
2022/05/18 01:03:01;;;;;;;8.07;2.70;;;13.90;99.90;;;;;;5054132;28;20283;-75
2022/05/18 01:05:33;;;;;;;3.97;2.47;;;13.80;99.90;;;;;;5055029;28;20208;-74
2022/05/18 01:08:00;;;;;;;5.73;2.53;;;13.70;99.90;;;;;;5053470;28;20700;-75
2022/05/18 01:10:29;;;;;;;6.27;2.60;;;13.70;99.90;;;;;;5054268;28;20310;-74
2022/05/18 01:12:56;;;;;;;5.37;2.50;;;13.70;99.90;;;;;;5054144;28;20238;-75
2022/05/18 01:15:24;;;;;;;6.57;2.80;;;13.80;99.90;;;;;;5054906;28;20227;-75
2022/05/18 01:17:56;;;;;;;2.70;2.30;;;13.80;99.90;;;;;;5054195;28;20283;-74
2022/05/18 01:20:29;;;;;;;7.17;2.70;;;13.70;99.90;;;;;;5054353;28;20211;-74
2022/05/18 01:23:19;;;;;;;5.80;2.50;;;13.70;99.90;;;;;;5054703;28;20657;-74
2022/05/18 01:26:00;;;;;;;6.47;2.33;;;13.80;99.90;;;;;;5054536;28;20875;-74
2022/05/18 01:28:33;;;;;;;6.93;3.10;;;13.70;99.90;;;;;;5053156;28;20257;-74
2022/05/18 01:31:00;;;;;;;6.20;2.50;;;13.70;99.90;;;;;;5054481;28;20286;-75
2022/05/18 01:33:27;;;;;;;4.93;2.60;;;13.70;99.90;;;;;;5053904;28;20652;-75
2022/05/18 01:35:54;;;;;;;6.93;2.70;;;13.60;99.90;;;;;;5051873;28;20231;-74
2022/05/18 01:38:21;;;;;;;6.43;2.97;;;13.60;99.90;;;;;;5054134;28;20230;-74
2022/05/18 01:40:56;;;;;;;5.27;2.83;;;13.50;99.90;;;;;;5054702;28;20287;-75
2022/05/18 01:43:28;;;;;;;7.17;3.07;;;13.50;99.90;;;;;;5053432;28;20662;-74
2022/05/18 01:45:59;;;;;;;6.90;2.90;;;13.50;99.90;;;;;;5054299;28;20259;-75
2022/05/18 01:48:29;;;;;;;6.43;2.77;;;13.40;99.90;;;;;;5053979;28;20231;-74
2022/05/18 01:50:58;;;;;;;7.90;3.10;;;13.40;99.90;;;;;;5053310;28;20231;-74
2022/05/18 01:53:25;;;;;;;8.57;3.03;;;13.30;99.90;;;;;;5053674;28;20296;-74
2022/05/18 01:55:52;;;;;;;3.97;2.70;;;13.20;99.90;;;;;;5053310;28;20290;-74
2022/05/18 01:58:19;;;;;;;5.73;3.00;;;13.20;99.90;;;;;;5053561;28;20287;-75
2022/05/18 02:00:47;;;;;;;6.40;2.63;;;13.10;99.90;;;;;;5053078;28;20249;-74
2022/05/18 02:03:16;;;;;;;4.17;2.50;;;13.10;99.90;;;;;;5053948;28;20234;-74
2022/05/18 02:05:44;;;;;;;4.20;2.60;;;13.00;99.90;;;;;;5054165;28;20231;-74
2022/05/18 02:08:12;;;;;;;5.53;2.70;;;12.90;99.90;;;;;;5053698;28;20257;-74
2022/05/18 02:10:40;;;;;;;4.50;2.60;;;12.90;99.90;;;;;;5052255;28;20250;-74
2022/05/18 02:13:07;;;;;;;4.77;3.07;;;12.80;99.90;;;;;;5053175;28;20267;-75
2022/05/18 02:15:34;;;;;;;5.00;2.73;;;12.80;99.90;;;;;;5052619;28;20286;-74
2022/05/18 02:18:02;;;;;;;4.33;2.43;;;12.80;99.90;;;;;;5053848;28;20204;-75
2022/05/18 02:20:31;;;;;;;4.13;2.50;;;12.80;99.90;;;;;;5052719;28;20295;-74
2022/05/18 02:22:57;;;;;;;9.57;2.70;;;12.70;99.90;;;;;;5052939;28;20643;-75
2022/05/18 02:25:25;;;;;;;7.27;2.90;;;12.60;99.90;;;;;;5053297;28;20309;-75
2022/05/18 02:27:52;;;;;;;4.20;2.50;;;12.60;99.90;;;;;;5053239;28;20710;-74
2022/05/18 02:30:19;;;;;;;8.57;3.13;;;12.60;99.90;;;;;;5053003;28;20196;-75
2022/05/18 02:32:46;;;;;;;7.10;3.07;;;12.60;99.90;;;;;;5052756;28;20681;-74
2022/05/18 02:35:14;;;;;;;7.33;3.00;;;12.60;99.90;;;;;;5052510;28;20257;-74
2022/05/18 02:37:42;;;;;;;5.30;2.60;;;12.50;99.90;;;;;;5053414;28;20287;-75
2022/05/18 02:40:11;;;;;;;5.67;2.60;;;12.50;99.90;;;;;;5052976;28;20287;-74
2022/05/18 02:42:38;;;;;;;4.83;2.20;;;12.50;99.90;;;;;;5052651;28;20239;-74
2022/05/18 02:45:06;;;;;;;4.33;2.13;;;12.50;99.90;;;;;;5052230;28;20666;-74
2022/05/18 02:47:33;;;;;;;3.60;2.40;;;12.50;99.90;;;;;;5052940;28;20291;-79
2022/05/18 02:50:00;;;;;;;3.63;2.10;;;12.50;99.90;;;;;;5053008;28;20235;-79
2022/05/18 02:52:27;;;;;;;4.53;2.17;;;12.50;99.90;;;;;;5047456;28;20232;-79
2022/05/18 02:57:40;;;;;;;5.60;1.93;;;12.60;99.90;;;;;;5037634;28;20326;-79
2022/05/18 03:00:09;;;;;;;4.70;2.17;;;12.50;99.90;;;;;;5052541;28;20621;-79
2022/05/18 03:02:36;;;;;;;4.37;1.97;;;12.40;99.90;;;;;;5052602;28;20203;-79
2022/05/18 03:05:03;;;;;;;6.33;1.87;;;12.40;99.90;;;;;;5053403;28;20610;-79
2022/05/18 03:07:30;;;;;;;5.80;2.10;;;12.30;99.90;;;;;;5052636;28;20690;-79
2022/05/18 03:09:58;;;;;;;5.40;2.00;;;12.30;99.90;;;;;;5052654;28;20302;-79
2022/05/18 03:12:25;;;;;;;3.20;1.90;;;12.30;99.90;;;;;;5052306;28;20290;-79
2022/05/18 03:14:52;;;;;;;4.17;2.20;;;12.10;99.90;;;;;;5051724;28;20274;-80
2022/05/18 03:17:19;;;;;;;6.13;2.40;;;11.90;99.90;;;;;;5052702;28;20196;-79
2022/05/18 03:19:46;;;;;;;5.73;2.73;;;11.80;99.90;;;;;;5052124;28;20290;-79
2022/05/18 03:24:58;;;;;;;5.27;2.47;;;11.70;99.90;;;;;;5052346;28;20202;-79
2022/05/18 03:27:25;;;;;;;4.37;2.60;;;11.60;99.90;;;;;;5051732;28;20303;-79
2022/05/18 03:29:53;;;;;;;7.90;3.27;;;11.60;99.90;;;;;;5051036;28;20284;-79
2022/05/18 03:32:22;;;;;;;6.13;3.40;;;11.60;99.90;;;;;;5051674;28;20694;-80
2022/05/18 03:34:50;;;;;;;5.07;3.43;;;11.50;99.90;;;;;;5051593;28;20576;-79
2022/05/18 03:37:17;;;;;;;5.70;3.20;;;11.50;99.90;;;;;;5051996;28;20205;-80
2022/05/18 03:39:45;;;;;;;5.57;3.07;;;11.40;99.90;;;;;;5051992;28;20208;-79
2022/05/18 03:42:13;;;;;;;7.17;3.30;;;11.30;99.90;;;;;;5052131;28;20203;-79
2022/05/18 03:44:40;;;;;;;5.17;3.70;;;11.30;99.90;;;;;;5052132;28;20765;-79
2022/05/18 03:47:09;;;;;;;7.87;3.60;;;11.30;99.90;;;;;;5051563;28;20228;-79
2022/05/18 03:49:36;;;;;;;11.10;3.30;;;11.20;99.90;;;;;;5052320;28;20207;-79
2022/05/18 03:52:04;;;;;;;7.93;3.20;;;11.10;99.90;;;;;;5052091;28;20218;-80
2022/05/18 03:54:31;;;;;;;4.13;3.00;;;10.90;99.90;;;;;;5051367;28;20628;-79
2022/05/18 03:56:58;;;;;;;5.13;3.40;;;10.80;99.90;;;;;;5051454;28;20246;-79
2022/05/18 03:59:27;;;;;;;5.90;3.20;;;10.80;99.90;;;;;;5052515;28;20235;-80
2022/05/18 04:01:54;;;;;;;4.40;3.50;;;10.70;99.90;;;;;;5051935;28;20227;-79
2022/05/18 04:04:21;;;;;;;5.73;3.07;;;10.80;99.90;;;;;;5051275;28;20604;-79
2022/05/18 04:06:48;;;;;;;4.90;3.53;;;10.90;99.90;;;;;;5052018;28;20296;-79
2022/05/18 04:09:17;;;;;;;4.57;3.40;;;11.00;99.90;;;;;;5051722;28;20216;-79
2022/05/18 04:11:44;;;;;;;5.60;3.20;;;11.00;99.90;;;;;;5051471;28;20210;-79
2022/05/18 04:14:10;;;;;;;5.23;3.47;;;10.90;99.90;;;;;;5051548;28;20310;-80
2022/05/18 04:16:39;;;;;;;6.43;2.93;;;11.00;99.90;;;;;;5052252;28;20238;-79
2022/05/18 04:19:06;;;;;;;9.30;3.50;;;10.90;99.90;;;;;;5051760;28;20238;-78
2022/05/18 04:21:32;;;;;;;4.90;3.40;;;10.70;99.90;;;;;;5051743;28;20242;-79
2022/05/18 04:23:59;;;;;;;7.17;3.50;;;10.60;99.90;;;;;;5051401;28;20285;-79
2022/05/18 04:26:26;;;;;;;5.97;3.60;;;10.50;99.90;;;;;;5050893;28;20229;-79
2022/05/18 04:28:53;;;;;;;7.33;3.67;;;10.40;99.90;;;;;;5051873;28;20245;-79
2022/05/18 04:31:20;;;;;;;9.63;3.63;;;10.40;99.90;;;;;;5051535;28;20294;-79
2022/05/18 04:33:48;;;;;;;8.20;4.00;;;10.30;99.90;;;;;;5051777;28;20277;-79
2022/05/18 04:36:15;;;;;;;8.33;4.30;;;10.30;99.90;;;;;;5051439;28;20238;-79
2022/05/18 04:38:42;;;;;;;6.33;4.23;;;10.20;99.90;;;;;;5051452;28;20239;-79
2022/05/18 04:41:11;;;;;;;6.20;4.07;;;10.20;99.90;;;;;;5050650;28;20285;-79
2022/05/18 04:43:38;;;;;;;22.87;5.17;;;10.20;99.90;;;;;;5051388;28;20207;-79
2022/05/18 04:46:07;;;;;;;7.37;4.37;;;10.30;99.90;;;;;;5051768;28;20207;-79
2022/05/18 04:48:35;;;;;;;8.70;4.47;;;10.30;99.90;;;;;;5051596;28;20233;-79
2022/05/18 04:51:05;;;;;;;7.50;4.43;;;10.40;99.90;;;;;;5050734;28;20606;-79
2022/05/18 04:53:33;;;;;;;7.77;4.27;;;10.40;99.90;;;;;;5041184;28;20230;-79
2022/05/18 04:56:00;;;;;;;9.27;4.87;;;10.50;99.90;;;;;;5051366;28;20204;-79
2022/05/18 04:58:27;;;;;;;9.13;4.17;;;10.60;99.90;;;;;;5050297;28;20230;-81
2022/05/18 05:00:58;;;;;;;8.27;4.23;;;10.60;99.90;;;;;;5050788;28;20203;-82
2022/05/18 05:03:25;;;;;;;8.43;4.20;;;10.70;99.90;;;;;;5050591;28;20207;-82
2022/05/18 05:05:52;;;;;;;9.10;4.10;;;10.90;99.90;;;;;;5051763;28;20586;-81
2022/05/18 05:08:21;;;;;;;7.33;3.87;;;11.10;99.90;;;;;;5051018;28;20789;-82
2022/05/18 05:10:48;;;;;;;6.57;4.70;;;11.10;99.90;;;;;;5050461;28;20302;-82
2022/05/18 05:13:15;;;;;;;9.30;5.13;;;11.30;99.90;;;;;;5050314;28;20288;-82
2022/05/18 05:15:44;;;;;;;11.53;5.50;;;11.30;99.90;;;;;;5051278;28;20223;-81
2022/05/18 05:18:12;;;;;;;8.27;5.20;;;11.40;99.90;;;;;;5054223;28;20318;-81
2022/05/18 05:20:39;;;;;;;19.37;4.50;;;11.50;99.90;;;;;;5054460;28;20620;-81
2022/05/18 05:23:06;;;;;;;4.57;3.70;;;11.60;99.90;;;;;;5054686;28;20640;-81
2022/05/18 05:25:34;;;;;;;5.10;3.40;;;11.70;99.90;;;;;;5053423;28;20216;-81
2022/05/18 05:28:01;;;;;;;3.77;3.10;;;11.80;99.90;;;;;;5054635;28;20287;-81
2022/05/18 05:30:28;;;;;;;4.23;3.40;;;12.00;99.90;;;;;;5054009;28;20287;-81
2022/05/18 05:32:55;;;;;;;4.53;3.07;;;12.40;99.90;;;;;;5053627;28;20220;-81
2022/05/18 05:35:22;;;;;;;4.57;2.60;;;12.60;99.90;;;;;;5053292;28;20770;-80
2022/05/18 05:37:49;;;;;;;3.40;3.10;;;13.00;99.90;;;;;;5052270;28;20235;-82
2022/05/18 05:40:26;;;;;;;4.50;2.70;;;13.40;99.90;;;;;;5053314;28;20232;-81
2022/05/18 05:42:56;;;;;;;3.50;2.40;;;14.10;99.90;;;;;;5053281;28;20230;-81
2022/05/18 05:45:24;;;;;;;3.33;2.67;;;14.50;99.90;;;;;;5054380;28;20194;-82
2022/05/18 05:47:51;;;;;;;3.70;2.60;;;15.40;99.90;;;;;;5054096;28;20302;-80
2022/05/18 05:50:18;;;;;;;3.77;2.23;;;15.80;99.90;;;;;;5051631;28;20203;-78
2022/05/18 05:52:45;;;;;;;2.57;2.33;;;16.20;99.90;;;;;;5051725;28;20291;-78
2022/05/18 05:55:12;;;;;;;3.17;2.30;;;16.40;99.90;;;;;;5052334;28;20219;-78
2022/05/18 05:57:39;;;;;;;2.40;1.90;;;16.40;99.90;;;;;;5053189;28;20295;-78
2022/05/18 06:00:09;;;;;;;2.87;2.30;;;16.20;99.90;;;;;;5053023;28;20196;-79
2022/05/18 06:02:36;;;;;;;3.20;2.40;;;16.60;99.90;;;;;;5052878;28;20246;-79
2022/05/18 06:05:04;;;;;;;2.77;2.57;;;16.40;99.90;;;;;;5052962;28;20333;-78
2022/05/18 06:07:32;;;;;;;3.53;2.80;;;15.80;99.90;;;;;;5052896;28;20203;-79
2022/05/18 06:09:58;;;;;;;3.20;2.50;;;15.00;99.90;;;;;;5053220;28;20339;-79
2022/05/18 06:12:26;;;;;;;3.70;2.60;;;14.70;99.90;;;;;;5053627;28;20235;-78
2022/05/18 06:14:53;;;;;;;3.00;2.70;;;14.70;99.90;;;;;;5052999;28;20659;-79
2022/05/18 06:17:21;;;;;;;3.53;2.87;;;15.20;99.90;;;;;;5053875;28;20282;-79
2022/05/18 06:19:48;;;;;;;3.33;2.60;;;17.20;99.90;;;;;;5053665;28;20231;-80
2022/05/18 06:22:15;;;;;;;2.70;2.50;;;18.80;99.90;;;;;;5053012;28;20284;-80
2022/05/18 06:24:43;;;;;;;3.42;2.00;;;19.60;99.90;;;;;;5053699;28;20195;-78
2022/05/18 06:27:10;;;;;;;3.28;2.30;;;20.50;99.90;;;;;;5053105;28;20195;-79
2022/05/18 06:29:38;;;;;;;4.35;2.10;;;20.80;99.90;;;;;;5050692;28;20211;-79
2022/05/18 06:32:06;;;;;;;2.80;2.10;;;20.80;99.90;;;;;;5052730;28;20299;-79
2022/05/18 06:34:35;;;;;;;2.95;2.30;;;21.20;99.90;;;;;;5053210;28;20220;-80
2022/05/18 06:37:03;;;;;;;2.60;2.00;;;21.50;99.90;;;;;;5052470;28;20199;-80
2022/05/18 06:39:30;;;;;;;4.05;2.25;;;21.90;99.90;;;;;;5053726;28;20195;-80
2022/05/18 06:41:59;;;;;;;3.65;2.22;;;22.40;99.90;;;;;;5052371;28;20286;-80
2022/05/18 06:44:26;;;;;;;4.18;2.65;;;21.60;99.90;;;;;;5053270;28;20204;-80
2022/05/18 06:46:58;;;;;;;2.72;2.05;;;21.70;99.90;;;;;;5052197;28;20227;-80
2022/05/18 06:49:26;;;;;;;2.53;2.00;;;22.30;99.90;;;;;;5052805;28;20235;-79
2022/05/18 06:51:56;;;;;;;3.17;2.20;;;22.90;99.90;;;;;;5048814;28;20208;-80
2022/05/18 06:54:23;;;;;;;3.47;2.20;;;22.70;99.90;;;;;;5052170;28;20218;-80
2022/05/18 06:56:50;;;;;;;4.18;2.40;;;22.40;99.90;;;;;;5052825;28;20261;-79
2022/05/18 06:59:18;;;;;;;4.35;2.30;;;22.20;99.90;;;;;;5052245;28;20279;-80
2022/05/18 07:01:45;;;;;;;3.10;2.28;;;22.60;99.90;;;;;;5052334;28;20203;-80
2022/05/18 07:04:14;;;;;;;3.60;2.40;;;22.40;99.90;;;;;;5051663;28;20390;-80
2022/05/18 07:06:44;;;;;;;3.20;2.35;;;22.90;99.90;;;;;;5051801;28;20199;-80
2022/05/18 07:09:14;;;;;;;3.22;2.20;;;22.90;99.90;;;;;;5051948;28;20244;-80
2022/05/18 07:11:42;;;;;;;4.20;2.40;;;23.60;99.90;;;;;;5052381;28;20282;-80
2022/05/18 07:14:09;;;;;;;4.47;2.60;;;23.40;99.90;;;;;;5049994;28;20233;-80
2022/05/18 07:16:36;;;;;;;3.60;2.17;;;23.50;99.90;;;;;;5040961;28;20430;-80
2022/05/18 07:19:03;;;;;;;4.32;2.45;;;24.10;99.90;;;;;;5052606;28;20286;-80
2022/05/18 07:21:30;;;;;;;4.60;2.33;;;24.00;99.90;;;;;;5052337;28;20231;-80
2022/05/18 07:23:57;;;;;;;3.33;2.70;;;23.20;99.90;;;;;;5052559;28;20239;-80
2022/05/18 07:26:26;;;;;;;5.38;2.60;;;23.00;99.90;;;;;;5051926;28;20195;-80
2022/05/18 07:28:54;;;;;;;4.45;3.42;;;23.30;99.90;;;;;;5052154;28;20603;-80
2022/05/18 07:31:21;;;;;;;5.97;3.63;;;22.90;99.90;;;;;;5051569;28;20250;-80
2022/05/18 07:33:49;;;;;;;5.75;3.67;;;23.10;99.90;;;;;;5052050;28;20231;-80
2022/05/18 07:36:16;;;;;;;4.55;3.33;;;23.30;99.90;;;;;;5051107;28;20212;-80
2022/05/18 07:38:43;;;;;;;4.55;3.30;;;22.60;99.90;;;;;;5052058;28;20223;-80
2022/05/18 07:41:13;;;;;;;5.68;3.28;;;22.60;99.90;;;;;;5052019;28;20214;-80
2022/05/18 07:43:43;;;;;;;4.75;3.13;;;22.60;99.90;;;;;;5051652;28;20299;-81
2022/05/18 07:46:11;;;;;;;11.50;3.45;;;22.00;99.90;;;;;;5052558;28;20227;-80
2022/05/18 07:48:38;;;;;;;7.70;3.60;;;21.40;99.90;;;;;;5051688;28;20239;-80
2022/05/18 07:51:05;;;;;;;6.30;3.78;;;21.60;99.90;;;;;;5051230;28;20290;-79
2022/05/18 07:53:32;;;;;;;5.18;3.03;;;21.80;99.90;;;;;;5051894;28;20227;-80
2022/05/18 07:55:59;;;;;;;4.03;2.80;;;21.40;99.90;;;;;;5051453;28;20251;-80
2022/05/18 07:58:26;;;;;;;4.28;2.70;;;21.20;99.90;;;;;;5052312;28;20286;-80
2022/05/18 08:00:54;;;;;;;5.53;2.47;;;21.40;99.90;;;;;;5051446;28;20303;-79
2022/05/18 08:03:21;;;;;;;5.93;2.65;;;22.20;99.90;;;;;;5051686;28;20282;-80
2022/05/18 08:05:48;;;;;;;7.00;2.60;;;22.90;99.90;;;;;;5051894;28;20224;-80
2022/05/18 08:08:18;;;;;;;4.60;2.70;;;22.90;99.90;;;;;;5051216;28;20231;-80
2022/05/18 08:16:16;;;;;;;4.68;1.90;;;24.90;99.90;;;;;;5038095;28;20214;-80
2022/05/18 08:18:43;;;;;;;3.78;1.85;;;24.80;99.90;;;;;;5050706;28;20273;-80
2022/05/18 08:21:10;;;;;;;2.10;1.80;;;24.90;99.90;;;;;;5037066;28;20249;-80
2022/05/18 08:23:38;;;;;;;3.58;1.73;;;24.80;99.90;;;;;;5051048;28;20625;-80
2022/05/18 08:26:05;;;;;;;5.65;1.88;;;25.90;99.90;;;;;;5051834;28;20202;-79
2022/05/18 08:28:33;;;;;;;4.10;1.80;;;24.60;99.90;;;;;;5051659;28;20607;-79
2022/05/18 08:31:00;;;;;;;3.38;1.90;;;24.70;99.90;;;;;;5050566;28;20235;-80
2022/05/18 08:33:31;;;;;;;3.45;2.20;;;24.80;99.90;;;;;;5051317;28;20291;-80
2022/05/18 08:35:58;;;;;;;2.90;1.80;;;24.10;99.90;;;;;;5051108;28;20281;-80
2022/05/18 08:38:25;;;;;;;2.63;1.83;;;23.70;99.90;;;;;;5051022;28;20196;-79
2022/05/18 08:40:58;;;;;;;2.40;1.20;;;24.10;99.90;;;;;;5051063;28;20738;-80
2022/05/18 08:43:28;;;;;;;1.65;1.40;;;24.30;99.90;;;;;;5052066;28;20261;-80
2022/05/18 08:46:04;;;;;;;2.72;1.33;;;23.80;99.90;;;;;;5050590;28;20199;-80
2022/05/18 08:48:44;;;;;;;1.85;1.15;;;23.00;99.90;;;;;;5050756;28;20227;-79
2022/05/18 08:51:30;;;;;;;2.83;1.50;;;22.90;99.90;;;;;;5050751;28;20736;-79
2022/05/18 08:54:07;;;;;;;2.67;1.33;;;24.00;99.90;;;;;;5053377;28;20192;-80
2022/05/18 08:56:39;;;;;;;1.50;0.95;;;25.30;99.90;;;;;;5056158;28;20222;-80
2022/05/18 08:59:11;;;;;;;1.55;1.13;;;25.90;99.90;;;;;;5055184;28;20283;-80
2022/05/18 09:01:41;;;;;;;1.70;0.95;;;24.40;99.90;;;;;;5055699;28;20290;-80
2022/05/18 09:04:12;;;;;;;2.00;1.00;;;23.80;99.90;;;;;;5053677;28;20203;-80
2022/05/18 09:06:47;;;;;;;1.75;0.90;;;25.00;99.90;;;;;;5054696;28;20202;-80
2022/05/18 09:12:05;;;;;;;3.22;1.10;;;26.10;99.90;;;;;;5054163;28;20203;-80
2022/05/18 09:14:38;;;;;;;1.63;1.10;;;26.50;99.90;;;;;;5054276;28;20223;-81
2022/05/18 09:17:18;;;;;;;3.28;1.38;;;26.60;99.90;;;;;;5053424;28;20552;-80
2022/05/18 09:20:03;;;;;;;2.25;1.10;;;27.70;99.90;;;;;;5054578;28;20286;-80
2022/05/18 09:22:43;;;;;;;2.83;1.30;;;26.80;99.90;;;;;;5048735;28;20196;-80
2022/05/18 09:25:23;;;;;;;3.08;1.20;;;25.80;99.90;;;;;;5052536;28;20275;-80
2022/05/18 09:28:03;;;;;;;2.47;0.88;;;26.30;99.90;;;;;;5048545;28;20641;-81
2022/05/18 09:30:41;;;;;;;4.05;1.17;;;25.60;99.90;;;;;;5052935;28;20227;-80
2022/05/18 09:33:40;;;;;;;2.05;0.90;;;24.90;99.90;;;;;;5054466;28;20231;-80
2022/05/18 09:36:29;;;;;;;0.95;0.85;;;25.60;99.90;;;;;;5043122;28;20278;-80
2022/05/18 09:39:02;;;;;;;3.33;1.08;;;27.10;99.90;;;;;;5041832;28;20203;-81
2022/05/18 09:41:33;;;;;;;1.70;0.90;;;26.70;99.90;;;;;;5053944;28;20278;-80
2022/05/18 09:44:06;;;;;;;3.78;1.00;;;25.00;99.90;;;;;;5054175;28;20279;-81
2022/05/18 09:46:33;;;;;;;2.53;0.80;;;24.70;99.90;;;;;;5053224;28;20241;-80
2022/05/18 09:49:09;;;;;;;2.85;1.10;;;25.00;99.90;;;;;;5054390;28;20286;-80
2022/05/18 09:51:38;;;;;;;3.90;1.27;;;24.20;99.90;;;;;;5053490;28;20687;-80
2022/05/18 09:54:07;;;;;;;2.45;1.20;;;24.40;99.90;;;;;;5053633;28;20646;-80
2022/05/18 09:56:38;;;;;;;1.23;0.80;;;25.30;99.90;;;;;;5052897;28;20251;-80
2022/05/18 09:59:11;;;;;;;2.35;1.02;;;26.20;99.90;;;;;;5053098;28;20234;-80
2022/05/18 10:07:34;;;;;;;2.03;1.00;;;26.90;99.90;;;;;;5052773;28;20215;-80
2022/05/18 10:10:09;;;;;;;2.25;1.10;;;26.80;99.90;;;;;;5052237;28;20211;-80
2022/05/18 10:12:42;;;;;;;3.38;1.20;;;25.60;99.90;;;;;;5049689;28;20237;-80
2022/05/18 10:15:21;;;;;;;1.80;1.08;;;25.40;99.90;;;;;;5052713;28;20217;-80
2022/05/18 10:17:52;;;;;;;2.08;1.17;;;26.30;99.90;;;;;;5052479;28;20199;-80
2022/05/18 10:20:25;;;;;;;1.80;1.20;;;26.80;99.90;;;;;;5053253;28;20220;-80
2022/05/18 10:22:55;;;;;;;2.30;1.20;;;27.40;95.00;;;;;;5053050;28;20231;-80
2022/05/18 10:25:29;;;;;;;3.22;1.30;;;26.80;99.90;;;;;;5053153;28;20227;-79
2022/05/18 10:27:57;;;;;;;2.05;0.93;;;25.40;99.90;;;;;;5052494;28;20207;-79
2022/05/18 10:30:29;;;;;;;1.85;1.17;;;25.00;99.90;;;;;;5052620;28;20211;-80
2022/05/18 10:32:59;;;;;;;3.03;1.33;;;25.00;99.90;;;;;;5052143;28;20200;-80
2022/05/18 10:35:40;;;;;;;2.47;1.25;;;25.50;99.90;;;;;;5052674;28;20303;-74
2022/05/18 10:38:20;;;;;;;2.28;1.23;;;25.30;99.90;;;;;;5051713;28;20694;-74
2022/05/18 10:40:47;;;;;;;2.03;1.30;;;26.60;99.90;;;;;;5053052;28;20261;-75
2022/05/18 10:43:34;;;;;;;2.58;1.30;;;27.00;99.90;;;;;;5052589;28;20286;-74
2022/05/18 10:46:03;;;;;;;2.90;1.30;;;25.90;99.90;;;;;;5052283;28;20231;-75
2022/05/18 10:48:33;;;;;;;1.60;1.30;;;26.70;99.90;;;;;;5052230;28;20227;-75
2022/05/18 10:51:02;;;;;;;1.80;1.17;;;26.90;96.80;;;;;;5051633;28;20567;-75
2022/05/18 10:53:33;;;;;;;1.63;1.20;;;27.70;93.30;;;;;;5063626;28;20700;-75
2022/05/18 10:56:05;;;;;;;2.08;1.20;;;28.00;95.70;;;;;;5049890;28;20323;-75
2022/05/18 10:58:46;;;;;;;4.47;1.30;;;26.30;99.90;;;;;;5044624;28;20200;-75
2022/05/18 11:01:18;;;;;;;2.40;1.40;;;26.00;99.90;;;;;;5047224;28;20295;-76
2022/05/18 11:03:51;;;;;;;2.80;1.50;;;26.10;99.90;;;;;;5048193;28;20257;-75
2022/05/18 11:06:21;;;;;;;2.47;1.92;;;25.70;99.90;;;;;;5041990;28;20195;-75
2022/05/18 11:08:51;;;;;;;2.17;1.77;;;25.30;99.90;;;;;;5050582;28;20210;-74
2022/05/18 11:11:28;;;;;;;2.50;1.55;;;25.20;99.90;;;;;;5049088;28;20195;-75
2022/05/18 11:14:02;;;;;;;2.45;1.50;;;25.60;99.90;;;;;;5049666;28;20227;-75
2022/05/18 11:16:45;;;;;;;2.35;1.40;;;26.20;99.90;;;;;;5038711;28;20246;-75
2022/05/18 11:19:26;;;;;;;2.90;1.35;;;26.80;99.90;;;;;;5050879;28;20286;-74
2022/05/18 11:22:02;;;;;;;2.95;1.60;;;26.70;99.30;;;;;;5050627;28;20257;-75
2022/05/18 11:24:39;;;;;;;3.60;1.60;;;26.20;99.90;;;;;;5049294;28;20239;-75
2022/05/18 11:27:16;;;;;;;2.00;1.63;;;26.50;99.90;;;;;;5052021;28;20191;-75
2022/05/18 11:30:01;;;;;;;2.05;1.50;;;27.00;96.50;;;;;;5050085;28;20675;-75
2022/05/18 11:32:36;;;;;;;2.15;1.50;;;27.60;98.70;;;;;;5047814;28;20231;-74
2022/05/18 11:35:21;;;;;;;2.42;1.33;;;26.70;99.00;;;;;;5045561;28;20542;-75
2022/05/18 11:38:01;;;;;;;2.60;1.50;;;26.50;99.90;;;;;;5040868;28;20292;-76
2022/05/18 11:40:39;;;;;;;2.40;1.30;;;27.20;99.90;;;;;;5045658;28;20292;-75
2022/05/18 11:43:33;;;;;;;2.10;1.50;;;28.20;93.50;;;;;;5049238;28;20299;-76
2022/05/18 11:46:23;;;;;;;2.08;1.30;;;29.50;88.60;;;;;;5048860;28;20196;-75
2022/05/18 11:48:55;;;;;;;2.47;1.23;;;28.00;81.90;;;;;;5047830;28;20679;-75
2022/05/18 11:51:33;;;;;;;1.40;1.02;;;26.70;75.40;;;;;;5049575;28;20192;-75
2022/05/18 11:54:12;;;;;;;1.92;1.10;;;26.70;89.00;;;;;;5048573;28;20211;-75
2022/05/18 11:56:47;;;;;;;1.30;1.10;;;27.00;92.80;;;;;;5049403;28;20785;-75
2022/05/18 11:59:46;;;;;;;1.20;1.10;;;27.20;88.90;;;;;;5047357;28;20194;-74
2022/05/18 12:02:52;;;;;;;3.17;1.20;;;26.60;89.90;;;;;;5047384;28;20200;-75
2022/05/18 12:05:50;;;;;;;1.60;1.15;;;26.60;90.10;;;;;;4981944;28;20238;-75
2022/05/18 12:08:37;;;;;;;1.60;1.08;;;26.80;89.50;;;;;;4946060;28;20296;-75
2022/05/18 12:11:12;;;;;;;2.30;1.00;;;26.90;88.90;;;;;;4984495;28;20315;-75
2022/05/18 12:13:53;;;;;;;1.92;1.00;;;27.00;88.50;;;;;;4981230;28;20474;-73
2022/05/18 12:16:27;;;;;;;4.85;1.30;;;27.50;80.70;;;;;;4983330;28;20225;-73
2022/05/18 12:19:03;;;;;;;3.38;1.58;;;27.80;75.20;;;;;;4979991;28;20201;-74
2022/05/18 12:21:35;;;;;;;2.47;1.10;;;28.10;72.10;;;;;;4976976;28;20197;-74
2022/05/18 12:24:06;;;;;;;3.13;1.40;;;30.00;47.20;;;;;;4976607;28;20292;-74
2022/05/18 12:26:36;;;;;;;2.67;1.30;;;29.90;48.90;;;;;;4975369;28;20199;-73
2022/05/18 12:29:06;;;;;;;2.33;1.15;;;31.60;39.60;;;;;;4981339;28;20256;-74
2022/05/18 12:31:34;;;;;;;1.35;1.10;;;31.00;29.20;;;;;;4977925;28;20285;-74
2022/05/18 12:34:05;;;;;;;1.73;1.13;;;29.00;62.70;;;;;;4981534;28;20312;-74
2022/05/18 12:36:36;;;;;;;1.55;1.27;;;29.10;68.60;;;;;;4967923;28;20663;-74
2022/05/18 12:39:14;;;;;;;2.35;1.30;;;28.70;74.20;;;;;;4987211;28;20288;-74
2022/05/18 12:41:45;;;;;;;3.55;1.30;;;28.50;81.00;;;;;;5014695;28;20207;-74
2022/05/18 12:44:22;;;;;;;4.55;1.20;;;28.30;84.90;;;;;;5050525;28;20282;-74
2022/05/18 12:46:57;;;;;;;2.63;1.33;;;29.40;77.20;;;;;;5052487;28;20234;-74
2022/05/18 12:49:31;;;;;;;3.13;1.70;;;28.80;72.90;;;;;;5052070;28;20679;-73
2022/05/18 12:52:03;;;;;;;2.13;1.30;;;29.50;71.00;;;;;;5053252;28;20238;-73
2022/05/18 12:54:41;;;;;;;1.20;1.10;;;27.50;77.50;;;;;;5051671;28;20204;-73
2022/05/18 12:57:19;;;;;;;1.70;1.20;;;26.90;92.00;;;;;;5050073;28;20246;-73
2022/05/18 13:00:22;;;;;;;3.60;1.13;;;27.00;92.60;;;;;;5052627;28;20608;-73
2022/05/18 13:02:55;;;;;;;3.00;1.60;;;28.30;96.20;;;;;;5052168;28;20287;-74
2022/05/18 13:05:36;;;;;;;1.38;1.20;;;30.20;76.40;;;;;;5052692;28;20278;-74
2022/05/18 13:08:17;;;;;;;2.17;1.50;;;29.00;84.00;;;;;;5046003;28;20713;-74
2022/05/18 13:11:16;;;;;;;2.58;1.40;;;28.60;88.50;;;;;;5047383;28;20310;-74
2022/05/18 13:14:05;;;;;;;2.05;1.40;;;28.90;88.80;;;;;;5049974;28;20259;-73
2022/05/18 13:17:10;;;;;;;2.85;1.27;;;28.20;92.20;;;;;;5053624;28;20211;-73
2022/05/18 13:19:45;;;;;;;1.70;1.20;;;28.20;81.20;;;;;;5051124;28;20282;-73
2022/05/18 13:22:27;;;;;;;1.33;1.23;;;27.80;81.40;;;;;;5052766;28;20287;-73
2022/05/18 13:24:57;;;;;;;2.70;1.50;;;27.50;91.20;;;;;;5051709;28;20227;-73